sensor_id;sensor_type;location;lat;lon;timestamp;P1;durP1;ratioP1;P2;durP2;ratioP2
12816;SDS011;6473;51.552;6.716;2023-05-07T00:00:41;11.40;;;10.40;;
12816;SDS011;6473;51.552;6.716;2023-05-07T00:03:08;12.65;;;11.45;;
12816;SDS011;6473;51.552;6.716;2023-05-07T00:05:36;11.95;;;10.75;;
12816;SDS011;6473;51.552;6.716;2023-05-07T00:08:04;11.57;;;10.43;;
12816;SDS011;6473;51.552;6.716;2023-05-07T00:10:31;12.70;;;11.60;;
12816;SDS011;6473;51.552;6.716;2023-05-07T00:12:57;12.80;;;11.50;;
12816;SDS011;6473;51.552;6.716;2023-05-07T00:15:24;12.65;;;11.55;;
12816;SDS011;6473;51.552;6.716;2023-05-07T00:17:53;13.35;;;12.15;;
12816;SDS011;6473;51.552;6.716;2023-05-07T00:20:20;13.20;;;12.00;;
12816;SDS011;6473;51.552;6.716;2023-05-07T00:22:47;12.60;;;11.50;;
12816;SDS011;6473;51.552;6.716;2023-05-07T00:25:13;13.25;;;12.00;;
12816;SDS011;6473;51.552;6.716;2023-05-07T00:27:40;12.48;;;11.27;;
12816;SDS011;6473;51.552;6.716;2023-05-07T00:30:07;12.48;;;11.38;;
12816;SDS011;6473;51.552;6.716;2023-05-07T00:32:35;13.10;;;11.88;;
12816;SDS011;6473;51.552;6.716;2023-05-07T00:35:04;12.57;;;11.48;;
12816;SDS011;6473;51.552;6.716;2023-05-07T00:37:32;13.32;;;12.18;;
12816;SDS011;6473;51.552;6.716;2023-05-07T00:39:58;11.98;;;10.98;;
12816;SDS011;6473;51.552;6.716;2023-05-07T00:42:28;12.13;;;10.93;;
12816;SDS011;6473;51.552;6.716;2023-05-07T00:44:55;12.30;;;11.00;;
12816;SDS011;6473;51.552;6.716;2023-05-07T00:47:21;12.10;;;10.90;;
12816;SDS011;6473;51.552;6.716;2023-05-07T00:49:48;11.60;;;10.50;;
12816;SDS011;6473;51.552;6.716;2023-05-07T00:52:17;12.65;;;11.55;;
12816;SDS011;6473;51.552;6.716;2023-05-07T00:54:46;12.68;;;11.55;;
12816;SDS011;6473;51.552;6.716;2023-05-07T00:57:13;13.15;;;11.82;;
12816;SDS011;6473;51.552;6.716;2023-05-07T00:59:41;12.80;;;11.60;;
12816;SDS011;6473;51.552;6.716;2023-05-07T01:02:08;12.75;;;11.65;;
12816;SDS011;6473;51.552;6.716;2023-05-07T01:04:36;13.68;;;12.48;;
12816;SDS011;6473;51.552;6.716;2023-05-07T01:07:03;15.75;;;12.38;;
12816;SDS011;6473;51.552;6.716;2023-05-07T01:09:32;13.57;;;12.30;;
12816;SDS011;6473;51.552;6.716;2023-05-07T01:12:01;13.80;;;12.60;;
12816;SDS011;6473;51.552;6.716;2023-05-07T01:14:29;14.50;;;13.10;;
12816;SDS011;6473;51.552;6.716;2023-05-07T01:16:58;14.30;;;13.00;;
12816;SDS011;6473;51.552;6.716;2023-05-07T01:19:25;14.52;;;13.13;;
12816;SDS011;6473;51.552;6.716;2023-05-07T01:21:52;15.43;;;14.02;;
12816;SDS011;6473;51.552;6.716;2023-05-07T01:24:30;14.60;;;13.23;;
12816;SDS011;6473;51.552;6.716;2023-05-07T01:26:58;15.60;;;14.20;;
12816;SDS011;6473;51.552;6.716;2023-05-07T01:29:29;15.63;;;14.13;;
12816;SDS011;6473;51.552;6.716;2023-05-07T01:31:56;15.77;;;14.30;;
12816;SDS011;6473;51.552;6.716;2023-05-07T01:34:25;16.65;;;14.90;;
12816;SDS011;6473;51.552;6.716;2023-05-07T01:36:55;16.73;;;15.13;;
12816;SDS011;6473;51.552;6.716;2023-05-07T01:39:24;17.23;;;15.73;;
12816;SDS011;6473;51.552;6.716;2023-05-07T01:41:53;16.50;;;14.93;;
12816;SDS011;6473;51.552;6.716;2023-05-07T01:44:22;16.25;;;14.75;;
12816;SDS011;6473;51.552;6.716;2023-05-07T01:46:50;15.93;;;14.45;;
12816;SDS011;6473;51.552;6.716;2023-05-07T01:49:17;15.70;;;14.13;;
12816;SDS011;6473;51.552;6.716;2023-05-07T01:51:44;16.13;;;14.73;;
12816;SDS011;6473;51.552;6.716;2023-05-07T01:54:11;15.35;;;13.98;;
12816;SDS011;6473;51.552;6.716;2023-05-07T01:56:38;17.10;;;14.98;;
12816;SDS011;6473;51.552;6.716;2023-05-07T01:59:06;16.52;;;14.95;;
12816;SDS011;6473;51.552;6.716;2023-05-07T02:01:34;16.60;;;15.02;;
12816;SDS011;6473;51.552;6.716;2023-05-07T02:04:01;15.90;;;14.38;;
12816;SDS011;6473;51.552;6.716;2023-05-07T02:06:29;16.05;;;14.45;;
12816;SDS011;6473;51.552;6.716;2023-05-07T02:09:01;16.08;;;14.57;;
12816;SDS011;6473;51.552;6.716;2023-05-07T02:11:28;16.92;;;15.25;;
12816;SDS011;6473;51.552;6.716;2023-05-07T02:13:55;16.00;;;14.48;;
12816;SDS011;6473;51.552;6.716;2023-05-07T02:16:23;15.45;;;14.05;;
12816;SDS011;6473;51.552;6.716;2023-05-07T02:18:51;14.38;;;12.98;;
12816;SDS011;6473;51.552;6.716;2023-05-07T02:21:18;16.70;;;14.85;;
12816;SDS011;6473;51.552;6.716;2023-05-07T02:23:45;16.25;;;14.75;;
12816;SDS011;6473;51.552;6.716;2023-05-07T02:26:12;17.23;;;15.48;;
12816;SDS011;6473;51.552;6.716;2023-05-07T02:28:38;17.00;;;14.93;;
12816;SDS011;6473;51.552;6.716;2023-05-07T02:31:05;16.25;;;14.65;;
12816;SDS011;6473;51.552;6.716;2023-05-07T02:33:34;16.08;;;14.57;;
12816;SDS011;6473;51.552;6.716;2023-05-07T02:36:07;17.52;;;15.82;;
12816;SDS011;6473;51.552;6.716;2023-05-07T02:38:36;17.38;;;15.68;;
12816;SDS011;6473;51.552;6.716;2023-05-07T02:41:04;18.58;;;16.75;;
12816;SDS011;6473;51.552;6.716;2023-05-07T02:43:31;18.50;;;16.58;;
12816;SDS011;6473;51.552;6.716;2023-05-07T02:46:02;20.60;;;18.45;;
12816;SDS011;6473;51.552;6.716;2023-05-07T02:48:29;23.38;;;18.48;;
12816;SDS011;6473;51.552;6.716;2023-05-07T02:50:58;19.92;;;17.98;;
12816;SDS011;6473;51.552;6.716;2023-05-07T02:53:26;21.60;;;19.17;;
12816;SDS011;6473;51.552;6.716;2023-05-07T02:55:55;21.73;;;19.50;;
12816;SDS011;6473;51.552;6.716;2023-05-07T02:58:23;22.52;;;20.17;;
12816;SDS011;6473;51.552;6.716;2023-05-07T03:00:50;22.83;;;20.52;;
12816;SDS011;6473;51.552;6.716;2023-05-07T03:03:49;22.13;;;19.98;;
12816;SDS011;6473;51.552;6.716;2023-05-07T03:06:18;23.15;;;20.85;;
12816;SDS011;6473;51.552;6.716;2023-05-07T03:08:45;23.20;;;20.65;;
12816;SDS011;6473;51.552;6.716;2023-05-07T03:11:12;23.83;;;21.42;;
12816;SDS011;6473;51.552;6.716;2023-05-07T03:13:39;23.00;;;20.63;;
12816;SDS011;6473;51.552;6.716;2023-05-07T03:16:06;23.58;;;21.08;;
12816;SDS011;6473;51.552;6.716;2023-05-07T03:18:34;22.92;;;20.63;;
12816;SDS011;6473;51.552;6.716;2023-05-07T03:21:01;22.83;;;20.52;;
12816;SDS011;6473;51.552;6.716;2023-05-07T03:23:29;22.98;;;20.60;;
12816;SDS011;6473;51.552;6.716;2023-05-07T03:25:56;22.92;;;20.52;;
12816;SDS011;6473;51.552;6.716;2023-05-07T03:28:23;24.33;;;21.13;;
12816;SDS011;6473;51.552;6.716;2023-05-07T03:30:55;21.85;;;19.80;;
12816;SDS011;6473;51.552;6.716;2023-05-07T03:33:22;24.42;;;21.92;;
12816;SDS011;6473;51.552;6.716;2023-05-07T03:35:50;22.85;;;20.65;;
12816;SDS011;6473;51.552;6.716;2023-05-07T03:38:21;24.45;;;21.88;;
12816;SDS011;6473;51.552;6.716;2023-05-07T03:40:49;24.73;;;22.23;;
12816;SDS011;6473;51.552;6.716;2023-05-07T03:43:17;23.83;;;21.42;;
12816;SDS011;6473;51.552;6.716;2023-05-07T03:45:49;23.75;;;21.35;;
12816;SDS011;6473;51.552;6.716;2023-05-07T03:48:20;24.77;;;21.33;;
12816;SDS011;6473;51.552;6.716;2023-05-07T03:50:50;26.60;;;23.65;;
12816;SDS011;6473;51.552;6.716;2023-05-07T03:53:18;26.92;;;23.10;;
12816;SDS011;6473;51.552;6.716;2023-05-07T03:55:45;26.45;;;23.65;;
12816;SDS011;6473;51.552;6.716;2023-05-07T03:58:13;25.88;;;23.10;;
12816;SDS011;6473;51.552;6.716;2023-05-07T04:00:41;27.17;;;24.27;;
12816;SDS011;6473;51.552;6.716;2023-05-07T04:03:17;25.17;;;22.58;;
12816;SDS011;6473;51.552;6.716;2023-05-07T04:05:44;26.48;;;23.55;;
12816;SDS011;6473;51.552;6.716;2023-05-07T04:08:12;26.27;;;23.63;;
12816;SDS011;6473;51.552;6.716;2023-05-07T04:10:43;26.35;;;23.65;;
12816;SDS011;6473;51.552;6.716;2023-05-07T04:13:11;25.83;;;23.20;;
12816;SDS011;6473;51.552;6.716;2023-05-07T04:15:40;25.83;;;23.20;;
12816;SDS011;6473;51.552;6.716;2023-05-07T04:18:10;26.77;;;23.90;;
12816;SDS011;6473;51.552;6.716;2023-05-07T04:20:37;26.50;;;23.58;;
12816;SDS011;6473;51.552;6.716;2023-05-07T04:23:09;28.15;;;23.42;;
12816;SDS011;6473;51.552;6.716;2023-05-07T04:25:35;27.23;;;24.33;;
12816;SDS011;6473;51.552;6.716;2023-05-07T04:28:09;25.75;;;23.02;;
12816;SDS011;6473;51.552;6.716;2023-05-07T04:30:39;24.95;;;22.45;;
12816;SDS011;6473;51.552;6.716;2023-05-07T04:33:07;27.70;;;23.17;;
12816;SDS011;6473;51.552;6.716;2023-05-07T04:35:36;29.33;;;23.60;;
12816;SDS011;6473;51.552;6.716;2023-05-07T04:38:04;26.73;;;23.45;;
12816;SDS011;6473;51.552;6.716;2023-05-07T04:40:31;26.55;;;23.70;;
12816;SDS011;6473;51.552;6.716;2023-05-07T04:43:01;27.55;;;24.45;;
12816;SDS011;6473;51.552;6.716;2023-05-07T04:45:31;26.10;;;23.40;;
12816;SDS011;6473;51.552;6.716;2023-05-07T04:48:00;26.52;;;23.35;;
12816;SDS011;6473;51.552;6.716;2023-05-07T04:50:28;27.08;;;24.30;;
12816;SDS011;6473;51.552;6.716;2023-05-07T04:52:59;26.55;;;23.75;;
12816;SDS011;6473;51.552;6.716;2023-05-07T04:55:28;27.90;;;24.58;;
12816;SDS011;6473;51.552;6.716;2023-05-07T04:57:55;25.23;;;22.52;;
12816;SDS011;6473;51.552;6.716;2023-05-07T05:00:22;25.50;;;22.52;;
12816;SDS011;6473;51.552;6.716;2023-05-07T05:02:51;26.95;;;23.95;;
12816;SDS011;6473;51.552;6.716;2023-05-07T05:05:22;26.63;;;23.73;;
12816;SDS011;6473;51.552;6.716;2023-05-07T05:07:51;25.73;;;23.00;;
12816;SDS011;6473;51.552;6.716;2023-05-07T05:10:19;25.63;;;22.70;;
12816;SDS011;6473;51.552;6.716;2023-05-07T05:12:49;27.95;;;23.33;;
12816;SDS011;6473;51.552;6.716;2023-05-07T05:15:16;25.95;;;23.15;;
12816;SDS011;6473;51.552;6.716;2023-05-07T05:17:43;26.55;;;23.25;;
12816;SDS011;6473;51.552;6.716;2023-05-07T05:20:11;27.23;;;23.95;;
12816;SDS011;6473;51.552;6.716;2023-05-07T05:22:41;27.23;;;23.00;;
12816;SDS011;6473;51.552;6.716;2023-05-07T05:25:09;25.88;;;22.52;;
12816;SDS011;6473;51.552;6.716;2023-05-07T05:27:36;25.95;;;22.75;;
12816;SDS011;6473;51.552;6.716;2023-05-07T05:30:04;24.70;;;22.05;;
12816;SDS011;6473;51.552;6.716;2023-05-07T05:32:33;22.58;;;19.55;;
12816;SDS011;6473;51.552;6.716;2023-05-07T05:35:00;22.38;;;20.02;;
12816;SDS011;6473;51.552;6.716;2023-05-07T05:37:28;20.27;;;18.25;;
12816;SDS011;6473;51.552;6.716;2023-05-07T05:39:57;23.08;;;18.70;;
12816;SDS011;6473;51.552;6.716;2023-05-07T05:42:26;19.95;;;17.10;;
12816;SDS011;6473;51.552;6.716;2023-05-07T05:44:54;18.05;;;16.25;;
12816;SDS011;6473;51.552;6.716;2023-05-07T05:47:21;17.92;;;15.70;;
12816;SDS011;6473;51.552;6.716;2023-05-07T05:49:50;15.55;;;13.98;;
12816;SDS011;6473;51.552;6.716;2023-05-07T05:52:17;15.32;;;13.73;;
12816;SDS011;6473;51.552;6.716;2023-05-07T05:54:45;14.35;;;12.40;;
12816;SDS011;6473;51.552;6.716;2023-05-07T05:57:13;13.75;;;12.45;;
12816;SDS011;6473;51.552;6.716;2023-05-07T05:59:41;13.70;;;12.30;;
12816;SDS011;6473;51.552;6.716;2023-05-07T06:02:08;12.77;;;11.48;;
12816;SDS011;6473;51.552;6.716;2023-05-07T06:04:35;12.30;;;11.10;;
12816;SDS011;6473;51.552;6.716;2023-05-07T06:07:03;13.27;;;11.27;;
12816;SDS011;6473;51.552;6.716;2023-05-07T06:09:29;11.82;;;10.45;;
12816;SDS011;6473;51.552;6.716;2023-05-07T06:11:56;11.68;;;10.48;;
12816;SDS011;6473;51.552;6.716;2023-05-07T06:14:25;11.00;;;9.65;;
12816;SDS011;6473;51.552;6.716;2023-05-07T06:16:53;11.00;;;9.95;;
12816;SDS011;6473;51.552;6.716;2023-05-07T06:19:20;9.60;;;8.60;;
12816;SDS011;6473;51.552;6.716;2023-05-07T06:21:49;9.60;;;8.70;;
12816;SDS011;6473;51.552;6.716;2023-05-07T06:24:16;10.75;;;9.57;;
12816;SDS011;6473;51.552;6.716;2023-05-07T06:26:43;9.52;;;8.52;;
12816;SDS011;6473;51.552;6.716;2023-05-07T06:29:10;8.85;;;7.90;;
12816;SDS011;6473;51.552;6.716;2023-05-07T06:31:41;8.52;;;7.82;;
12816;SDS011;6473;51.552;6.716;2023-05-07T06:34:09;9.55;;;8.65;;
12816;SDS011;6473;51.552;6.716;2023-05-07T06:36:40;9.43;;;8.52;;
12816;SDS011;6473;51.552;6.716;2023-05-07T06:39:36;9.18;;;8.38;;
12816;SDS011;6473;51.552;6.716;2023-05-07T06:42:03;10.63;;;8.15;;
12816;SDS011;6473;51.552;6.716;2023-05-07T06:44:32;9.10;;;8.05;;
12816;SDS011;6473;51.552;6.716;2023-05-07T06:47:12;9.02;;;8.13;;
12816;SDS011;6473;51.552;6.716;2023-05-07T06:49:39;9.95;;;8.15;;
12816;SDS011;6473;51.552;6.716;2023-05-07T06:52:06;9.57;;;7.55;;
12816;SDS011;6473;51.552;6.716;2023-05-07T06:54:33;8.25;;;7.38;;
12816;SDS011;6473;51.552;6.716;2023-05-07T06:57:00;9.32;;;6.88;;
12816;SDS011;6473;51.552;6.716;2023-05-07T06:59:29;7.57;;;6.88;;
12816;SDS011;6473;51.552;6.716;2023-05-07T07:01:55;6.68;;;6.00;;
12816;SDS011;6473;51.552;6.716;2023-05-07T07:04:24;6.95;;;6.13;;
12816;SDS011;6473;51.552;6.716;2023-05-07T07:06:58;6.60;;;5.90;;
12816;SDS011;6473;51.552;6.716;2023-05-07T07:09:25;6.60;;;5.97;;
12816;SDS011;6473;51.552;6.716;2023-05-07T07:11:53;6.30;;;5.70;;
12816;SDS011;6473;51.552;6.716;2023-05-07T07:14:21;5.55;;;5.05;;
12816;SDS011;6473;51.552;6.716;2023-05-07T07:16:50;5.90;;;5.38;;
12816;SDS011;6473;51.552;6.716;2023-05-07T07:19:19;5.60;;;5.10;;
12816;SDS011;6473;51.552;6.716;2023-05-07T07:21:51;6.88;;;5.00;;
12816;SDS011;6473;51.552;6.716;2023-05-07T07:24:18;4.38;;;4.00;;
12816;SDS011;6473;51.552;6.716;2023-05-07T07:26:48;5.63;;;5.03;;
12816;SDS011;6473;51.552;6.716;2023-05-07T07:29:16;4.78;;;4.20;;
12816;SDS011;6473;51.552;6.716;2023-05-07T07:31:44;5.47;;;4.30;;
12816;SDS011;6473;51.552;6.716;2023-05-07T07:34:11;4.57;;;3.88;;
12816;SDS011;6473;51.552;6.716;2023-05-07T07:36:38;4.20;;;3.80;;
12816;SDS011;6473;51.552;6.716;2023-05-07T07:39:07;3.75;;;3.40;;
12816;SDS011;6473;51.552;6.716;2023-05-07T07:41:35;4.05;;;3.65;;
12816;SDS011;6473;51.552;6.716;2023-05-07T07:44:03;3.75;;;3.22;;
12816;SDS011;6473;51.552;6.716;2023-05-07T07:46:34;6.68;;;3.95;;
12816;SDS011;6473;51.552;6.716;2023-05-07T07:49:01;4.75;;;3.75;;
12816;SDS011;6473;51.552;6.716;2023-05-07T07:51:29;4.30;;;3.90;;
12816;SDS011;6473;51.552;6.716;2023-05-07T07:53:57;5.20;;;3.80;;
12816;SDS011;6473;51.552;6.716;2023-05-07T07:56:27;8.20;;;4.00;;
12816;SDS011;6473;51.552;6.716;2023-05-07T07:58:54;4.03;;;3.33;;
12816;SDS011;6473;51.552;6.716;2023-05-07T08:01:21;3.92;;;3.60;;
12816;SDS011;6473;51.552;6.716;2023-05-07T08:03:48;3.70;;;3.40;;
12816;SDS011;6473;51.552;6.716;2023-05-07T08:06:16;3.17;;;2.97;;
12816;SDS011;6473;51.552;6.716;2023-05-07T08:08:43;4.45;;;3.53;;
12816;SDS011;6473;51.552;6.716;2023-05-07T08:11:10;4.07;;;3.38;;
12816;SDS011;6473;51.552;6.716;2023-05-07T08:13:39;3.92;;;3.22;;
12816;SDS011;6473;51.552;6.716;2023-05-07T08:16:06;3.30;;;3.00;;
12816;SDS011;6473;51.552;6.716;2023-05-07T08:18:35;5.32;;;3.13;;
12816;SDS011;6473;51.552;6.716;2023-05-07T08:21:02;3.80;;;2.72;;
12816;SDS011;6473;51.552;6.716;2023-05-07T08:23:30;2.95;;;2.72;;
12816;SDS011;6473;51.552;6.716;2023-05-07T08:25:59;3.15;;;2.72;;
12816;SDS011;6473;51.552;6.716;2023-05-07T08:28:29;2.78;;;2.58;;
12816;SDS011;6473;51.552;6.716;2023-05-07T08:30:57;2.72;;;2.53;;
12816;SDS011;6473;51.552;6.716;2023-05-07T08:33:27;4.15;;;2.58;;
12816;SDS011;6473;51.552;6.716;2023-05-07T08:35:55;2.95;;;2.65;;
12816;SDS011;6473;51.552;6.716;2023-05-07T08:38:23;3.35;;;2.90;;
12816;SDS011;6473;51.552;6.716;2023-05-07T08:40:50;3.05;;;2.72;;
12816;SDS011;6473;51.552;6.716;2023-05-07T08:43:18;3.72;;;2.78;;
12816;SDS011;6473;51.552;6.716;2023-05-07T08:45:47;2.80;;;2.60;;
12816;SDS011;6473;51.552;6.716;2023-05-07T08:48:21;2.20;;;2.10;;
12816;SDS011;6473;51.552;6.716;2023-05-07T08:50:57;2.65;;;2.15;;
12816;SDS011;6473;51.552;6.716;2023-05-07T08:53:25;3.10;;;2.45;;
12816;SDS011;6473;51.552;6.716;2023-05-07T08:55:53;5.07;;;2.22;;
12816;SDS011;6473;51.552;6.716;2023-05-07T08:58:20;3.22;;;2.08;;
12816;SDS011;6473;51.552;6.716;2023-05-07T09:00:48;4.65;;;2.33;;
12816;SDS011;6473;51.552;6.716;2023-05-07T09:03:15;2.40;;;2.20;;
12816;SDS011;6473;51.552;6.716;2023-05-07T09:05:47;3.63;;;2.50;;
12816;SDS011;6473;51.552;6.716;2023-05-07T09:08:16;2.92;;;2.53;;
12816;SDS011;6473;51.552;6.716;2023-05-07T09:10:46;5.45;;;2.67;;
12816;SDS011;6473;51.552;6.716;2023-05-07T09:13:15;3.20;;;2.45;;
12816;SDS011;6473;51.552;6.716;2023-05-07T09:15:43;3.75;;;2.10;;
12816;SDS011;6473;51.552;6.716;2023-05-07T09:18:10;3.58;;;2.50;;
12816;SDS011;6473;51.552;6.716;2023-05-07T09:20:39;5.43;;;2.10;;
12816;SDS011;6473;51.552;6.716;2023-05-07T09:23:09;3.55;;;2.45;;
12816;SDS011;6473;51.552;6.716;2023-05-07T09:25:36;2.85;;;2.35;;
12816;SDS011;6473;51.552;6.716;2023-05-07T09:28:11;3.42;;;2.30;;
12816;SDS011;6473;51.552;6.716;2023-05-07T09:30:38;2.55;;;2.10;;
12816;SDS011;6473;51.552;6.716;2023-05-07T09:33:08;2.40;;;2.10;;
12816;SDS011;6473;51.552;6.716;2023-05-07T09:35:39;2.20;;;2.03;;
12816;SDS011;6473;51.552;6.716;2023-05-07T09:38:12;2.58;;;2.22;;
12816;SDS011;6473;51.552;6.716;2023-05-07T09:40:39;2.03;;;1.85;;
12816;SDS011;6473;51.552;6.716;2023-05-07T09:43:11;2.10;;;1.90;;
12816;SDS011;6473;51.552;6.716;2023-05-07T09:45:52;4.10;;;2.33;;
12816;SDS011;6473;51.552;6.716;2023-05-07T09:48:22;3.40;;;2.20;;
12816;SDS011;6473;51.552;6.716;2023-05-07T09:50:54;2.78;;;1.90;;
12816;SDS011;6473;51.552;6.716;2023-05-07T09:53:27;2.78;;;2.30;;
12816;SDS011;6473;51.552;6.716;2023-05-07T09:55:57;2.85;;;2.30;;
12816;SDS011;6473;51.552;6.716;2023-05-07T09:58:25;3.03;;;2.00;;
12816;SDS011;6473;51.552;6.716;2023-05-07T10:00:53;2.72;;;2.50;;
12816;SDS011;6473;51.552;6.716;2023-05-07T10:03:22;3.28;;;1.88;;
12816;SDS011;6473;51.552;6.716;2023-05-07T10:05:58;2.55;;;1.90;;
12816;SDS011;6473;51.552;6.716;2023-05-07T10:08:28;4.70;;;2.60;;
12816;SDS011;6473;51.552;6.716;2023-05-07T10:10:59;2.50;;;2.30;;
12816;SDS011;6473;51.552;6.716;2023-05-07T10:13:28;4.10;;;2.20;;
12816;SDS011;6473;51.552;6.716;2023-05-07T10:15:57;3.90;;;2.72;;
12816;SDS011;6473;51.552;6.716;2023-05-07T10:18:30;3.35;;;2.97;;
12816;SDS011;6473;51.552;6.716;2023-05-07T10:21:04;2.88;;;2.40;;
12816;SDS011;6473;51.552;6.716;2023-05-07T10:23:38;2.40;;;2.20;;
12816;SDS011;6473;51.552;6.716;2023-05-07T10:26:07;3.17;;;2.38;;
12816;SDS011;6473;51.552;6.716;2023-05-07T10:28:37;2.85;;;2.00;;
12816;SDS011;6473;51.552;6.716;2023-05-07T10:31:11;1.83;;;1.67;;
12816;SDS011;6473;51.552;6.716;2023-05-07T10:33:47;2.83;;;1.88;;
12816;SDS011;6473;51.552;6.716;2023-05-07T10:36:19;2.03;;;1.67;;
12816;SDS011;6473;51.552;6.716;2023-05-07T10:38:50;1.90;;;1.80;;
12816;SDS011;6473;51.552;6.716;2023-05-07T10:41:17;2.05;;;1.90;;
12816;SDS011;6473;51.552;6.716;2023-05-07T10:43:45;2.30;;;2.10;;
12816;SDS011;6473;51.552;6.716;2023-05-07T10:46:20;2.45;;;1.95;;
12816;SDS011;6473;51.552;6.716;2023-05-07T10:49:11;2.63;;;2.00;;
12816;SDS011;6473;51.552;6.716;2023-05-07T10:51:47;4.18;;;2.20;;
12816;SDS011;6473;51.552;6.716;2023-05-07T10:55:03;2.60;;;2.20;;
12816;SDS011;6473;51.552;6.716;2023-05-07T11:01:00;1.60;;;1.50;;
12816;SDS011;6473;51.552;6.716;2023-05-07T11:03:36;1.65;;;1.55;;
12816;SDS011;6473;51.552;6.716;2023-05-07T11:06:38;2.75;;;1.83;;
12816;SDS011;6473;51.552;6.716;2023-05-07T11:09:09;2.65;;;1.60;;
12816;SDS011;6473;51.552;6.716;2023-05-07T11:11:51;1.83;;;1.70;;
12816;SDS011;6473;51.552;6.716;2023-05-07T11:14:42;2.00;;;1.80;;
12816;SDS011;6473;51.552;6.716;2023-05-07T11:17:29;1.90;;;1.70;;
12816;SDS011;6473;51.552;6.716;2023-05-07T11:20:02;1.52;;;1.40;;
12816;SDS011;6473;51.552;6.716;2023-05-07T11:22:53;1.45;;;1.35;;
12816;SDS011;6473;51.552;6.716;2023-05-07T11:25:45;2.63;;;1.35;;
12816;SDS011;6473;51.552;6.716;2023-05-07T11:28:21;3.03;;;1.30;;
12816;SDS011;6473;51.552;6.716;2023-05-07T11:30:58;1.75;;;1.35;;
12816;SDS011;6473;51.552;6.716;2023-05-07T11:33:25;3.38;;;1.92;;
12816;SDS011;6473;51.552;6.716;2023-05-07T11:35:54;1.40;;;1.30;;
12816;SDS011;6473;51.552;6.716;2023-05-07T11:38:27;0.95;;;0.93;;
12816;SDS011;6473;51.552;6.716;2023-05-07T11:40:56;0.90;;;0.90;;
12816;SDS011;6473;51.552;6.716;2023-05-07T11:43:25;1.70;;;1.20;;
12816;SDS011;6473;51.552;6.716;2023-05-07T11:45:52;6.00;;;1.60;;
12816;SDS011;6473;51.552;6.716;2023-05-07T11:48:20;1.73;;;1.30;;
12816;SDS011;6473;51.552;6.716;2023-05-07T11:50:51;1.88;;;1.27;;
12816;SDS011;6473;51.552;6.716;2023-05-07T11:53:19;1.20;;;1.10;;
12816;SDS011;6473;51.552;6.716;2023-05-07T11:55:46;4.00;;;1.42;;
12816;SDS011;6473;51.552;6.716;2023-05-07T11:58:15;1.95;;;1.30;;
12816;SDS011;6473;51.552;6.716;2023-05-07T12:00:49;1.50;;;1.40;;
12816;SDS011;6473;51.552;6.716;2023-05-07T12:03:16;2.10;;;1.40;;
12816;SDS011;6473;51.552;6.716;2023-05-07T12:05:44;2.17;;;1.60;;
12816;SDS011;6473;51.552;6.716;2023-05-07T12:08:13;3.88;;;1.70;;
12816;SDS011;6473;51.552;6.716;2023-05-07T12:16:20;3.13;;;1.73;;
12816;SDS011;6473;51.552;6.716;2023-05-07T12:18:47;2.42;;;1.48;;
12816;SDS011;6473;51.552;6.716;2023-05-07T12:21:15;1.73;;;1.50;;
12816;SDS011;6473;51.552;6.716;2023-05-07T12:23:42;2.58;;;1.52;;
12816;SDS011;6473;51.552;6.716;2023-05-07T12:26:09;1.38;;;1.27;;
12816;SDS011;6473;51.552;6.716;2023-05-07T12:28:36;2.40;;;1.60;;
12816;SDS011;6473;51.552;6.716;2023-05-07T12:31:04;1.40;;;1.30;;
12816;SDS011;6473;51.552;6.716;2023-05-07T12:33:33;2.78;;;1.88;;
12816;SDS011;6473;51.552;6.716;2023-05-07T12:36:05;2.72;;;1.80;;
12816;SDS011;6473;51.552;6.716;2023-05-07T12:38:40;2.08;;;1.90;;
12816;SDS011;6473;51.552;6.716;2023-05-07T12:41:08;2.17;;;1.98;;
12816;SDS011;6473;51.552;6.716;2023-05-07T12:43:36;4.03;;;1.80;;
12816;SDS011;6473;51.552;6.716;2023-05-07T12:46:04;3.75;;;2.50;;
12816;SDS011;6473;51.552;6.716;2023-05-07T12:48:33;3.60;;;2.20;;
12816;SDS011;6473;51.552;6.716;2023-05-07T12:51:02;3.08;;;2.50;;
12816;SDS011;6473;51.552;6.716;2023-05-07T12:53:29;7.50;;;4.10;;
12816;SDS011;6473;51.552;6.716;2023-05-07T12:55:56;8.52;;;3.92;;
12816;SDS011;6473;51.552;6.716;2023-05-07T12:58:25;6.05;;;3.92;;
12816;SDS011;6473;51.552;6.716;2023-05-07T13:00:53;5.53;;;4.18;;
12816;SDS011;6473;51.552;6.716;2023-05-07T13:03:24;6.55;;;3.70;;
12816;SDS011;6473;51.552;6.716;2023-05-07T13:05:54;4.82;;;3.63;;
12816;SDS011;6473;51.552;6.716;2023-05-07T13:08:25;6.45;;;3.97;;
12816;SDS011;6473;51.552;6.716;2023-05-07T13:10:53;4.72;;;3.80;;
12816;SDS011;6473;51.552;6.716;2023-05-07T13:13:21;4.53;;;4.13;;
12816;SDS011;6473;51.552;6.716;2023-05-07T13:15:48;19.77;;;10.98;;
12816;SDS011;6473;51.552;6.716;2023-05-07T13:18:15;5.18;;;4.22;;
12816;SDS011;6473;51.552;6.716;2023-05-07T13:20:41;5.95;;;4.55;;
12816;SDS011;6473;51.552;6.716;2023-05-07T13:23:10;5.50;;;4.20;;
12816;SDS011;6473;51.552;6.716;2023-05-07T13:25:36;4.82;;;4.15;;
12816;SDS011;6473;51.552;6.716;2023-05-07T13:28:03;4.68;;;3.67;;
12816;SDS011;6473;51.552;6.716;2023-05-07T13:30:30;4.72;;;4.00;;
12816;SDS011;6473;51.552;6.716;2023-05-07T13:32:57;4.00;;;3.70;;
12816;SDS011;6473;51.552;6.716;2023-05-07T13:35:25;4.05;;;3.65;;
12816;SDS011;6473;51.552;6.716;2023-05-07T13:37:52;4.30;;;3.90;;
12816;SDS011;6473;51.552;6.716;2023-05-07T13:40:21;5.95;;;4.22;;
12816;SDS011;6473;51.552;6.716;2023-05-07T13:42:48;4.57;;;4.15;;
12816;SDS011;6473;51.552;6.716;2023-05-07T13:45:15;4.50;;;4.05;;
12816;SDS011;6473;51.552;6.716;2023-05-07T13:47:42;4.88;;;4.43;;
12816;SDS011;6473;51.552;6.716;2023-05-07T13:50:09;5.57;;;5.07;;
12816;SDS011;6473;51.552;6.716;2023-05-07T13:52:39;5.82;;;5.13;;
12816;SDS011;6473;51.552;6.716;2023-05-07T13:55:08;5.97;;;5.47;;
12816;SDS011;6473;51.552;6.716;2023-05-07T13:57:36;5.78;;;5.22;;
12816;SDS011;6473;51.552;6.716;2023-05-07T14:00:03;6.72;;;6.05;;
12816;SDS011;6473;51.552;6.716;2023-05-07T14:02:40;7.35;;;6.13;;
12816;SDS011;6473;51.552;6.716;2023-05-07T14:05:07;6.57;;;5.78;;
12816;SDS011;6473;51.552;6.716;2023-05-07T14:07:35;6.10;;;5.60;;
12816;SDS011;6473;51.552;6.716;2023-05-07T14:10:02;5.80;;;5.35;;
12816;SDS011;6473;51.552;6.716;2023-05-07T14:12:29;6.32;;;5.80;;
12816;SDS011;6473;51.552;6.716;2023-05-07T14:14:57;6.57;;;5.97;;
12816;SDS011;6473;51.552;6.716;2023-05-07T14:17:24;6.60;;;5.97;;
12816;SDS011;6473;51.552;6.716;2023-05-07T14:19:52;6.35;;;5.85;;
12816;SDS011;6473;51.552;6.716;2023-05-07T14:22:19;7.45;;;6.75;;
12816;SDS011;6473;51.552;6.716;2023-05-07T14:24:47;7.50;;;6.90;;
12816;SDS011;6473;51.552;6.716;2023-05-07T14:27:14;8.15;;;6.70;;
12816;SDS011;6473;51.552;6.716;2023-05-07T14:29:41;7.57;;;6.93;;
12816;SDS011;6473;51.552;6.716;2023-05-07T14:32:09;8.10;;;7.30;;
12816;SDS011;6473;51.552;6.716;2023-05-07T14:34:36;8.38;;;7.57;;
12816;SDS011;6473;51.552;6.716;2023-05-07T14:37:03;10.27;;;7.63;;
12816;SDS011;6473;51.552;6.716;2023-05-07T14:39:30;7.03;;;6.35;;
12816;SDS011;6473;51.552;6.716;2023-05-07T14:41:57;8.23;;;6.38;;
12816;SDS011;6473;51.552;6.716;2023-05-07T14:44:23;6.15;;;5.57;;
12816;SDS011;6473;51.552;6.716;2023-05-07T14:46:51;6.63;;;6.00;;
12816;SDS011;6473;51.552;6.716;2023-05-07T14:49:19;7.97;;;7.18;;
12816;SDS011;6473;51.552;6.716;2023-05-07T14:51:46;8.48;;;7.10;;
12816;SDS011;6473;51.552;6.716;2023-05-07T14:54:13;7.15;;;6.50;;
12816;SDS011;6473;51.552;6.716;2023-05-07T14:56:40;7.43;;;6.72;;
12816;SDS011;6473;51.552;6.716;2023-05-07T14:59:08;8.77;;;7.88;;
12816;SDS011;6473;51.552;6.716;2023-05-07T15:01:35;9.75;;;8.15;;
12816;SDS011;6473;51.552;6.716;2023-05-07T15:04:02;8.70;;;7.80;;
12816;SDS011;6473;51.552;6.716;2023-05-07T15:06:31;9.45;;;8.15;;
12816;SDS011;6473;51.552;6.716;2023-05-07T15:08:58;8.98;;;8.18;;
12816;SDS011;6473;51.552;6.716;2023-05-07T15:11:25;10.73;;;8.07;;